sensor_id;sensor_type;location;lat;lon;timestamp;P1;durP1;ratioP1;P2;durP2;ratioP2
37365;SDS011;23239;51.504;7.456;2024-01-25T00:00:00;47.2;;;8.4;;
37365;SDS011;23239;51.504;7.456;2024-01-25T00:01:00;47.2;;;8.4;;
37365;SDS011;23239;51.504;7.456;2024-01-25T00:02:00;47.2;;;8.4;;
37365;SDS011;23239;51.504;7.456;2024-01-25T00:03:00;41.6;;;8.9;;
37365;SDS011;23239;51.504;7.456;2024-01-25T00:04:00;41.6;;;8.9;;
37365;SDS011;23239;51.504;7.456;2024-01-25T00:05:00;41.6;;;8.9;;
37365;SDS011;23239;51.504;7.456;2024-01-25T00:06:00;41.6;;;8.9;;
37365;SDS011;23239;51.504;7.456;2024-01-25T00:07:00;41.6;;;8.9;;
37365;SDS011;23239;51.504;7.456;2024-01-25T00:08:00;42.5;;;9.1;;
37365;SDS011;23239;51.504;7.456;2024-01-25T00:09:00;42.5;;;9.1;;
37365;SDS011;23239;51.504;7.456;2024-01-25T00:10:00;42.5;;;9.1;;
37365;SDS011;23239;51.504;7.456;2024-01-25T00:11:01;42.5;;;9.1;;
37365;SDS011;23239;51.504;7.456;2024-01-25T00:12:00;42.5;;;9.1;;
37365;SDS011;23239;51.504;7.456;2024-01-25T00:13:00;36.5;;;8.2;;
37365;SDS011;23239;51.504;7.456;2024-01-25T00:14:00;36.5;;;8.2;;
37365;SDS011;23239;51.504;7.456;2024-01-25T00:15:00;36.5;;;8.2;;
37365;SDS011;23239;51.504;7.456;2024-01-25T00:16:00;36.5;;;8.2;;
37365;SDS011;23239;51.504;7.456;2024-01-25T00:17:00;36.5;;;8.2;;
37365;SDS011;23239;51.504;7.456;2024-01-25T00:18:00;39.8;;;8.3;;
37365;SDS011;23239;51.504;7.456;2024-01-25T00:19:00;39.8;;;8.3;;
37365;SDS011;23239;51.504;7.456;2024-01-25T00:20:00;39.8;;;8.3;;
37365;SDS011;23239;51.504;7.456;2024-01-25T00:21:00;39.8;;;8.3;;
37365;SDS011;23239;51.504;7.456;2024-01-25T00:22:00;39.8;;;8.3;;
37365;SDS011;23239;51.504;7.456;2024-01-25T00:23:00;40.8;;;8.8;;
37365;SDS011;23239;51.504;7.456;2024-01-25T00:24:00;40.8;;;8.8;;
37365;SDS011;23239;51.504;7.456;2024-01-25T00:25:00;40.8;;;8.8;;
37365;SDS011;23239;51.504;7.456;2024-01-25T00:26:00;40.8;;;8.8;;
37365;SDS011;23239;51.504;7.456;2024-01-25T00:27:00;40.8;;;8.8;;
37365;SDS011;23239;51.504;7.456;2024-01-25T00:28:00;38.1;;;8.6;;
37365;SDS011;23239;51.504;7.456;2024-01-25T00:29:00;38.1;;;8.6;;
37365;SDS011;23239;51.504;7.456;2024-01-25T00:30:00;38.1;;;8.6;;
37365;SDS011;23239;51.504;7.456;2024-01-25T00:31:00;38.1;;;8.6;;
37365;SDS011;23239;51.504;7.456;2024-01-25T00:32:00;38.1;;;8.6;;
37365;SDS011;23239;51.504;7.456;2024-01-25T00:33:00;40.1;;;8.4;;
37365;SDS011;23239;51.504;7.456;2024-01-25T00:34:00;40.1;;;8.4;;
37365;SDS011;23239;51.504;7.456;2024-01-25T00:35:00;40.1;;;8.4;;
37365;SDS011;23239;51.504;7.456;2024-01-25T00:36:00;40.1;;;8.4;;
37365;SDS011;23239;51.504;7.456;2024-01-25T00:37:00;40.1;;;8.4;;
37365;SDS011;23239;51.504;7.456;2024-01-25T00:38:00;47.4;;;8.6;;
37365;SDS011;23239;51.504;7.456;2024-01-25T00:39:00;47.4;;;8.6;;
37365;SDS011;23239;51.504;7.456;2024-01-25T00:40:00;47.4;;;8.6;;
37365;SDS011;23239;51.504;7.456;2024-01-25T00:41:00;47.4;;;8.6;;
37365;SDS011;23239;51.504;7.456;2024-01-25T00:42:02;47.4;;;8.6;;
37365;SDS011;23239;51.504;7.456;2024-01-25T00:43:00;42.1;;;9.0;;
37365;SDS011;23239;51.504;7.456;2024-01-25T00:44:00;42.1;;;9.0;;
37365;SDS011;23239;51.504;7.456;2024-01-25T00:45:00;42.1;;;9.0;;
37365;SDS011;23239;51.504;7.456;2024-01-25T00:46:00;42.1;;;9.0;;
37365;SDS011;23239;51.504;7.456;2024-01-25T00:47:00;42.1;;;9.0;;
37365;SDS011;23239;51.504;7.456;2024-01-25T00:48:00;39.0;;;8.8;;
37365;SDS011;23239;51.504;7.456;2024-01-25T00:49:00;39.0;;;8.8;;
37365;SDS011;23239;51.504;7.456;2024-01-25T00:50:00;39.0;;;8.8;;
37365;SDS011;23239;51.504;7.456;2024-01-25T00:51:00;39.0;;;8.8;;
37365;SDS011;23239;51.504;7.456;2024-01-25T00:52:00;39.0;;;8.8;;
37365;SDS011;23239;51.504;7.456;2024-01-25T00:53:00;36.7;;;8.1;;
37365;SDS011;23239;51.504;7.456;2024-01-25T00:54:00;36.7;;;8.1;;
37365;SDS011;23239;51.504;7.456;2024-01-25T00:55:00;36.7;;;8.1;;
37365;SDS011;23239;51.504;7.456;2024-01-25T00:56:00;36.7;;;8.1;;
37365;SDS011;23239;51.504;7.456;2024-01-25T00:57:00;36.7;;;8.1;;
37365;SDS011;23239;51.504;7.456;2024-01-25T00:58:00;40.3;;;8.2;;
37365;SDS011;23239;51.504;7.456;2024-01-25T00:59:00;40.3;;;8.2;;
37365;SDS011;23239;51.504;7.456;2024-01-25T01:00:00;40.3;;;8.2;;
37365;SDS011;23239;51.504;7.456;2024-01-25T01:01:00;40.3;;;8.2;;
37365;SDS011;23239;51.504;7.456;2024-01-25T01:02:00;40.3;;;8.2;;
37365;SDS011;23239;51.504;7.456;2024-01-25T01:03:00;38.3;;;8.5;;
37365;SDS011;23239;51.504;7.456;2024-01-25T01:04:00;38.3;;;8.5;;
37365;SDS011;23239;51.504;7.456;2024-01-25T01:05:00;38.3;;;8.5;;
37365;SDS011;23239;51.504;7.456;2024-01-25T01:06:00;38.3;;;8.5;;
37365;SDS011;23239;51.504;7.456;2024-01-25T01:07:00;38.3;;;8.5;;
37365;SDS011;23239;51.504;7.456;2024-01-25T01:08:00;39.4;;;8.7;;
37365;SDS011;23239;51.504;7.456;2024-01-25T01:09:00;39.4;;;8.7;;
37365;SDS011;23239;51.504;7.456;2024-01-25T01:10:00;39.4;;;8.7;;
37365;SDS011;23239;51.504;7.456;2024-01-25T01:11:00;39.4;;;8.7;;
37365;SDS011;23239;51.504;7.456;2024-01-25T01:12:00;39.4;;;8.7;;
37365;SDS011;23239;51.504;7.456;2024-01-25T01:13:00;35.7;;;7.9;;
37365;SDS011;23239;51.504;7.456;2024-01-25T01:14:00;35.7;;;7.9;;
37365;SDS011;23239;51.504;7.456;2024-01-25T01:15:00;35.7;;;7.9;;
37365;SDS011;23239;51.504;7.456;2024-01-25T01:16:00;35.7;;;7.9;;
37365;SDS011;23239;51.504;7.456;2024-01-25T01:17:00;35.7;;;7.9;;
37365;SDS011;23239;51.504;7.456;2024-01-25T01:18:00;38.0;;;8.8;;
37365;SDS011;23239;51.504;7.456;2024-01-25T01:19:00;38.0;;;8.8;;
37365;SDS011;23239;51.504;7.456;2024-01-25T01:20:00;38.0;;;8.8;;
37365;SDS011;23239;51.504;7.456;2024-01-25T01:21:00;38.0;;;8.8;;
37365;SDS011;23239;51.504;7.456;2024-01-25T01:22:00;38.0;;;8.8;;
37365;SDS011;23239;51.504;7.456;2024-01-25T01:23:00;34.7;;;7.8;;
37365;SDS011;23239;51.504;7.456;2024-01-25T01:24:00;34.7;;;7.8;;
37365;SDS011;23239;51.504;7.456;2024-01-25T01:25:00;34.7;;;7.8;;
37365;SDS011;23239;51.504;7.456;2024-01-25T01:26:00;34.7;;;7.8;;
37365;SDS011;23239;51.504;7.456;2024-01-25T01:27:00;34.7;;;7.8;;
37365;SDS011;23239;51.504;7.456;2024-01-25T01:28:00;42.1;;;8.1;;
37365;SDS011;23239;51.504;7.456;2024-01-25T01:29:00;42.1;;;8.1;;
37365;SDS011;23239;51.504;7.456;2024-01-25T01:30:00;42.1;;;8.1;;
37365;SDS011;23239;51.504;7.456;2024-01-25T01:31:00;42.1;;;8.1;;
37365;SDS011;23239;51.504;7.456;2024-01-25T01:32:00;42.1;;;8.1;;
37365;SDS011;23239;51.504;7.456;2024-01-25T01:33:00;35.0;;;7.4;;
37365;SDS011;23239;51.504;7.456;2024-01-25T01:34:00;35.0;;;7.4;;
37365;SDS011;23239;51.504;7.456;2024-01-25T01:35:00;35.0;;;7.4;;
37365;SDS011;23239;51.504;7.456;2024-01-25T01:36:00;35.0;;;7.4;;
37365;SDS011;23239;51.504;7.456;2024-01-25T01:37:00;35.0;;;7.4;;
37365;SDS011;23239;51.504;7.456;2024-01-25T01:38:00;37.6;;;8.0;;
37365;SDS011;23239;51.504;7.456;2024-01-25T01:39:00;37.6;;;8.0;;
37365;SDS011;23239;51.504;7.456;2024-01-25T01:40:00;37.6;;;8.0;;
37365;SDS011;23239;51.504;7.456;2024-01-25T01:41:00;37.6;;;8.0;;
37365;SDS011;23239;51.504;7.456;2024-01-25T01:42:00;37.6;;;8.0;;
37365;SDS011;23239;51.504;7.456;2024-01-25T01:43:00;34.3;;;8.1;;
37365;SDS011;23239;51.504;7.456;2024-01-25T01:44:00;34.3;;;8.1;;
37365;SDS011;23239;51.504;7.456;2024-01-25T01:45:00;34.3;;;8.1;;
37365;SDS011;23239;51.504;7.456;2024-01-25T01:46:01;34.3;;;8.1;;
37365;SDS011;23239;51.504;7.456;2024-01-25T01:47:00;34.3;;;8.1;;
37365;SDS011;23239;51.504;7.456;2024-01-25T01:48:00;41.0;;;8.0;;
37365;SDS011;23239;51.504;7.456;2024-01-25T01:49:00;41.0;;;8.0;;
37365;SDS011;23239;51.504;7.456;2024-01-25T01:50:00;41.0;;;8.0;;
37365;SDS011;23239;51.504;7.456;2024-01-25T01:51:00;41.0;;;8.0;;
37365;SDS011;23239;51.504;7.456;2024-01-25T01:52:00;41.0;;;8.0;;
37365;SDS011;23239;51.504;7.456;2024-01-25T01:53:00;38.6;;;7.9;;
37365;SDS011;23239;51.504;7.456;2024-01-25T01:54:00;38.6;;;7.9;;
37365;SDS011;23239;51.504;7.456;2024-01-25T01:55:00;38.6;;;7.9;;
37365;SDS011;23239;51.504;7.456;2024-01-25T01:56:00;38.6;;;7.9;;
37365;SDS011;23239;51.504;7.456;2024-01-25T01:57:00;38.6;;;7.9;;
37365;SDS011;23239;51.504;7.456;2024-01-25T01:58:00;40.1;;;8.1;;
37365;SDS011;23239;51.504;7.456;2024-01-25T01:59:00;40.1;;;8.1;;
37365;SDS011;23239;51.504;7.456;2024-01-25T02:00:00;40.1;;;8.1;;
37365;SDS011;23239;51.504;7.456;2024-01-25T02:01:00;40.1;;;8.1;;
37365;SDS011;23239;51.504;7.456;2024-01-25T02:02:00;40.1;;;8.1;;
37365;SDS011;23239;51.504;7.456;2024-01-25T02:03:00;42.8;;;9.0;;
37365;SDS011;23239;51.504;7.456;2024-01-25T02:04:00;42.8;;;9.0;;
37365;SDS011;23239;51.504;7.456;2024-01-25T02:05:00;42.8;;;9.0;;
37365;SDS011;23239;51.504;7.456;2024-01-25T02:06:00;42.8;;;9.0;;
37365;SDS011;23239;51.504;7.456;2024-01-25T02:07:00;42.8;;;9.0;;
37365;SDS011;23239;51.504;7.456;2024-01-25T02:08:00;37.2;;;7.0;;
37365;SDS011;23239;51.504;7.456;2024-01-25T02:09:00;37.2;;;7.0;;
37365;SDS011;23239;51.504;7.456;2024-01-25T02:10:00;37.2;;;7.0;;
37365;SDS011;23239;51.504;7.456;2024-01-25T02:11:00;37.2;;;7.0;;
37365;SDS011;23239;51.504;7.456;2024-01-25T02:12:00;37.2;;;7.0;;
37365;SDS011;23239;51.504;7.456;2024-01-25T02:13:00;38.9;;;7.7;;
37365;SDS011;23239;51.504;7.456;2024-01-25T02:14:00;38.9;;;7.7;;
37365;SDS011;23239;51.504;7.456;2024-01-25T02:15:00;38.9;;;7.7;;
37365;SDS011;23239;51.504;7.456;2024-01-25T02:16:00;38.9;;;7.7;;
37365;SDS011;23239;51.504;7.456;2024-01-25T02:17:00;38.9;;;7.7;;
37365;SDS011;23239;51.504;7.456;2024-01-25T02:18:00;36.9;;;7.8;;
37365;SDS011;23239;51.504;7.456;2024-01-25T02:19:00;36.9;;;7.8;;
37365;SDS011;23239;51.504;7.456;2024-01-25T02:20:00;36.9;;;7.8;;
37365;SDS011;23239;51.504;7.456;2024-01-25T02:21:00;36.9;;;7.8;;
37365;SDS011;23239;51.504;7.456;2024-01-25T02:22:00;36.9;;;7.8;;
37365;SDS011;23239;51.504;7.456;2024-01-25T02:23:00;35.5;;;7.0;;
37365;SDS011;23239;51.504;7.456;2024-01-25T02:24:00;35.5;;;7.0;;
37365;SDS011;23239;51.504;7.456;2024-01-25T02:25:00;35.5;;;7.0;;
37365;SDS011;23239;51.504;7.456;2024-01-25T02:26:00;35.5;;;7.0;;
37365;SDS011;23239;51.504;7.456;2024-01-25T02:27:00;35.5;;;7.0;;
37365;SDS011;23239;51.504;7.456;2024-01-25T02:28:00;40.7;;;8.2;;
37365;SDS011;23239;51.504;7.456;2024-01-25T02:29:00;40.7;;;8.2;;
37365;SDS011;23239;51.504;7.456;2024-01-25T02:30:00;40.7;;;8.2;;
37365;SDS011;23239;51.504;7.456;2024-01-25T02:31:01;40.7;;;8.2;;
37365;SDS011;23239;51.504;7.456;2024-01-25T02:32:00;40.7;;;8.2;;
37365;SDS011;23239;51.504;7.456;2024-01-25T02:33:00;38.7;;;7.4;;
37365;SDS011;23239;51.504;7.456;2024-01-25T02:34:00;38.7;;;7.4;;
37365;SDS011;23239;51.504;7.456;2024-01-25T02:35:00;38.7;;;7.4;;
37365;SDS011;23239;51.504;7.456;2024-01-25T02:36:00;38.7;;;7.4;;
37365;SDS011;23239;51.504;7.456;2024-01-25T02:37:00;38.7;;;7.4;;
37365;SDS011;23239;51.504;7.456;2024-01-25T02:38:00;36.8;;;7.9;;
37365;SDS011;23239;51.504;7.456;2024-01-25T02:39:00;36.8;;;7.9;;
37365;SDS011;23239;51.504;7.456;2024-01-25T02:40:00;36.8;;;7.9;;
37365;SDS011;23239;51.504;7.456;2024-01-25T02:41:00;36.8;;;7.9;;
37365;SDS011;23239;51.504;7.456;2024-01-25T02:42:00;36.8;;;7.9;;
37365;SDS011;23239;51.504;7.456;2024-01-25T02:43:00;32.9;;;7.2;;
37365;SDS011;23239;51.504;7.456;2024-01-25T02:44:00;32.9;;;7.2;;
37365;SDS011;23239;51.504;7.456;2024-01-25T02:45:00;32.9;;;7.2;;
37365;SDS011;23239;51.504;7.456;2024-01-25T02:46:00;32.9;;;7.2;;
37365;SDS011;23239;51.504;7.456;2024-01-25T02:47:00;32.9;;;7.2;;
37365;SDS011;23239;51.504;7.456;2024-01-25T02:48:00;32.9;;;7.5;;
37365;SDS011;23239;51.504;7.456;2024-01-25T02:49:00;32.9;;;7.5;;
37365;SDS011;23239;51.504;7.456;2024-01-25T02:50:00;32.9;;;7.5;;
37365;SDS011;23239;51.504;7.456;2024-01-25T02:51:00;32.9;;;7.5;;
37365;SDS011;23239;51.504;7.456;2024-01-25T02:52:00;32.9;;;7.5;;
37365;SDS011;23239;51.504;7.456;2024-01-25T02:53:00;34.5;;;7.3;;
37365;SDS011;23239;51.504;7.456;2024-01-25T02:54:00;34.5;;;7.3;;
37365;SDS011;23239;51.504;7.456;2024-01-25T02:55:00;34.5;;;7.3;;
37365;SDS011;23239;51.504;7.456;2024-01-25T02:56:00;34.5;;;7.3;;
37365;SDS011;23239;51.504;7.456;2024-01-25T02:57:00;34.5;;;7.3;;
37365;SDS011;23239;51.504;7.456;2024-01-25T02:58:00;43.3;;;8.0;;
37365;SDS011;23239;51.504;7.456;2024-01-25T02:59:00;43.3;;;8.0;;
37365;SDS011;23239;51.504;7.456;2024-01-25T03:00:00;43.3;;;8.0;;
37365;SDS011;23239;51.504;7.456;2024-01-25T03:01:00;43.3;;;8.0;;
37365;SDS011;23239;51.504;7.456;2024-01-25T03:02:00;43.3;;;8.0;;
37365;SDS011;23239;51.504;7.456;2024-01-25T03:03:00;36.2;;;7.2;;
37365;SDS011;23239;51.504;7.456;2024-01-25T03:04:00;36.2;;;7.2;;
37365;SDS011;23239;51.504;7.456;2024-01-25T03:05:00;36.2;;;7.2;;
37365;SDS011;23239;51.504;7.456;2024-01-25T03:06:00;36.2;;;7.2;;
37365;SDS011;23239;51.504;7.456;2024-01-25T03:07:00;36.2;;;7.2;;
37365;SDS011;23239;51.504;7.456;2024-01-25T03:08:00;36.6;;;8.1;;
37365;SDS011;23239;51.504;7.456;2024-01-25T03:09:00;36.6;;;8.1;;
37365;SDS011;23239;51.504;7.456;2024-01-25T03:10:00;36.6;;;8.1;;
37365;SDS011;23239;51.504;7.456;2024-01-25T03:11:00;36.6;;;8.1;;
37365;SDS011;23239;51.504;7.456;2024-01-25T03:12:00;36.6;;;8.1;;
37365;SDS011;23239;51.504;7.456;2024-01-25T03:13:00;36.5;;;7.5;;
37365;SDS011;23239;51.504;7.456;2024-01-25T03:14:00;36.5;;;7.5;;
37365;SDS011;23239;51.504;7.456;2024-01-25T03:15:00;36.5;;;7.5;;
37365;SDS011;23239;51.504;7.456;2024-01-25T03:16:00;36.5;;;7.5;;
37365;SDS011;23239;51.504;7.456;2024-01-25T03:17:00;36.5;;;7.5;;
37365;SDS011;23239;51.504;7.456;2024-01-25T03:18:00;35.9;;;7.2;;
37365;SDS011;23239;51.504;7.456;2024-01-25T03:19:00;35.9;;;7.2;;
37365;SDS011;23239;51.504;7.456;2024-01-25T03:20:00;35.9;;;7.2;;
37365;SDS011;23239;51.504;7.456;2024-01-25T03:21:00;35.9;;;7.2;;
37365;SDS011;23239;51.504;7.456;2024-01-25T03:22:00;35.9;;;7.2;;
37365;SDS011;23239;51.504;7.456;2024-01-25T03:23:00;37.0;;;6.8;;
37365;SDS011;23239;51.504;7.456;2024-01-25T03:24:00;37.0;;;6.8;;
37365;SDS011;23239;51.504;7.456;2024-01-25T03:25:00;37.0;;;6.8;;
37365;SDS011;23239;51.504;7.456;2024-01-25T03:26:01;37.0;;;6.8;;
37365;SDS011;23239;51.504;7.456;2024-01-25T03:27:00;37.0;;;6.8;;
37365;SDS011;23239;51.504;7.456;2024-01-25T03:28:00;34.3;;;7.7;;
37365;SDS011;23239;51.504;7.456;2024-01-25T03:29:00;34.3;;;7.7;;
37365;SDS011;23239;51.504;7.456;2024-01-25T03:30:00;34.3;;;7.7;;
37365;SDS011;23239;51.504;7.456;2024-01-25T03:31:00;34.3;;;7.7;;
37365;SDS011;23239;51.504;7.456;2024-01-25T03:32:00;34.3;;;7.7;;
37365;SDS011;23239;51.504;7.456;2024-01-25T03:33:00;35.6;;;6.9;;
37365;SDS011;23239;51.504;7.456;2024-01-25T03:34:00;35.6;;;6.9;;
37365;SDS011;23239;51.504;7.456;2024-01-25T03:35:00;35.6;;;6.9;;
37365;SDS011;23239;51.504;7.456;2024-01-25T03:36:01;35.6;;;6.9;;
37365;SDS011;23239;51.504;7.456;2024-01-25T03:37:00;35.6;;;6.9;;
37365;SDS011;23239;51.504;7.456;2024-01-25T03:38:00;30.6;;;6.9;;
37365;SDS011;23239;51.504;7.456;2024-01-25T03:39:00;30.6;;;6.9;;
37365;SDS011;23239;51.504;7.456;2024-01-25T03:40:00;30.6;;;6.9;;
37365;SDS011;23239;51.504;7.456;2024-01-25T03:41:00;30.6;;;6.9;;
37365;SDS011;23239;51.504;7.456;2024-01-25T03:42:00;30.6;;;6.9;;
37365;SDS011;23239;51.504;7.456;2024-01-25T03:43:00;38.4;;;7.5;;
37365;SDS011;23239;51.504;7.456;2024-01-25T03:44:00;38.4;;;7.5;;
37365;SDS011;23239;51.504;7.456;2024-01-25T03:45:00;38.4;;;7.5;;
37365;SDS011;23239;51.504;7.456;2024-01-25T03:46:00;38.4;;;7.5;;
37365;SDS011;23239;51.504;7.456;2024-01-25T03:47:00;38.4;;;7.5;;
37365;SDS011;23239;51.504;7.456;2024-01-25T03:48:00;39.3;;;7.5;;
37365;SDS011;23239;51.504;7.456;2024-01-25T03:49:00;39.3;;;7.5;;
37365;SDS011;23239;51.504;7.456;2024-01-25T03:50:00;39.3;;;7.5;;
37365;SDS011;23239;51.504;7.456;2024-01-25T03:51:00;39.3;;;7.5;;
37365;SDS011;23239;51.504;7.456;2024-01-25T03:52:00;39.3;;;7.5;;
37365;SDS011;23239;51.504;7.456;2024-01-25T03:53:00;34.0;;;6.9;;
37365;SDS011;23239;51.504;7.456;2024-01-25T03:54:00;34.0;;;6.9;;
37365;SDS011;23239;51.504;7.456;2024-01-25T03:55:00;34.0;;;6.9;;
37365;SDS011;23239;51.504;7.456;2024-01-25T03:56:00;34.0;;;6.9;;
37365;SDS011;23239;51.504;7.456;2024-01-25T03:57:00;34.0;;;6.9;;
37365;SDS011;23239;51.504;7.456;2024-01-25T03:58:00;31.7;;;7.0;;
37365;SDS011;23239;51.504;7.456;2024-01-25T03:59:00;31.7;;;7.0;;
37365;SDS011;23239;51.504;7.456;2024-01-25T04:00:00;31.7;;;7.0;;
37365;SDS011;23239;51.504;7.456;2024-01-25T04:01:00;31.7;;;7.0;;
37365;SDS011;23239;51.504;7.456;2024-01-25T04:02:00;31.7;;;7.0;;
37365;SDS011;23239;51.504;7.456;2024-01-25T04:03:00;34.2;;;7.3;;
37365;SDS011;23239;51.504;7.456;2024-01-25T04:04:00;34.2;;;7.3;;
37365;SDS011;23239;51.504;7.456;2024-01-25T04:05:00;34.2;;;7.3;;
37365;SDS011;23239;51.504;7.456;2024-01-25T04:06:00;34.2;;;7.3;;
37365;SDS011;23239;51.504;7.456;2024-01-25T04:07:00;34.2;;;7.3;;
37365;SDS011;23239;51.504;7.456;2024-01-25T04:08:00;33.4;;;7.1;;
37365;SDS011;23239;51.504;7.456;2024-01-25T04:09:00;33.4;;;7.1;;
37365;SDS011;23239;51.504;7.456;2024-01-25T04:10:00;33.4;;;7.1;;
37365;SDS011;23239;51.504;7.456;2024-01-25T04:11:00;33.4;;;7.1;;
37365;SDS011;23239;51.504;7.456;2024-01-25T04:12:00;33.4;;;7.1;;
37365;SDS011;23239;51.504;7.456;2024-01-25T04:13:00;38.0;;;7.2;;
37365;SDS011;23239;51.504;7.456;2024-01-25T04:14:00;38.0;;;7.2;;
37365;SDS011;23239;51.504;7.456;2024-01-25T04:15:00;38.0;;;7.2;;
37365;SDS011;23239;51.504;7.456;2024-01-25T04:16:00;38.0;;;7.2;;
37365;SDS011;23239;51.504;7.456;2024-01-25T04:17:00;38.0;;;7.2;;
37365;SDS011;23239;51.504;7.456;2024-01-25T04:18:00;34.3;;;7.5;;
37365;SDS011;23239;51.504;7.456;2024-01-25T04:19:00;34.3;;;7.5;;
37365;SDS011;23239;51.504;7.456;2024-01-25T04:20:00;34.3;;;7.5;;
37365;SDS011;23239;51.504;7.456;2024-01-25T04:21:00;34.3;;;7.5;;
37365;SDS011;23239;51.504;7.456;2024-01-25T04:22:00;34.3;;;7.5;;
37365;SDS011;23239;51.504;7.456;2024-01-25T04:23:00;38.9;;;7.5;;
37365;SDS011;23239;51.504;7.456;2024-01-25T04:24:00;38.9;;;7.5;;
37365;SDS011;23239;51.504;7.456;2024-01-25T04:25:00;38.9;;;7.5;;
37365;SDS011;23239;51.504;7.456;2024-01-25T04:26:00;38.9;;;7.5;;
37365;SDS011;23239;51.504;7.456;2024-01-25T04:27:00;38.9;;;7.5;;
37365;SDS011;23239;51.504;7.456;2024-01-25T04:28:00;37.7;;;8.1;;
37365;SDS011;23239;51.504;7.456;2024-01-25T04:29:00;37.7;;;8.1;;
37365;SDS011;23239;51.504;7.456;2024-01-25T04:30:01;37.7;;;8.1;;
37365;SDS011;23239;51.504;7.456;2024-01-25T04:31:01;37.7;;;8.1;;
37365;SDS011;23239;51.504;7.456;2024-01-25T04:32:00;37.7;;;8.1;;
37365;SDS011;23239;51.504;7.456;2024-01-25T04:33:00;38.0;;;8.1;;
37365;SDS011;23239;51.504;7.456;2024-01-25T04:34:00;38.0;;;8.1;;
37365;SDS011;23239;51.504;7.456;2024-01-25T04:35:00;38.0;;;8.1;;
37365;SDS011;23239;51.504;7.456;2024-01-25T04:36:00;38.0;;;8.1;;
37365;SDS011;23239;51.504;7.456;2024-01-25T04:37:00;38.0;;;8.1;;
37365;SDS011;23239;51.504;7.456;2024-01-25T04:38:00;37.7;;;7.7;;
37365;SDS011;23239;51.504;7.456;2024-01-25T04:39:00;37.7;;;7.7;;
37365;SDS011;23239;51.504;7.456;2024-01-25T04:40:00;37.7;;;7.7;;
37365;SDS011;23239;51.504;7.456;2024-01-25T04:41:00;37.7;;;7.7;;
37365;SDS011;23239;51.504;7.456;2024-01-25T04:42:00;37.7;;;7.7;;
37365;SDS011;23239;51.504;7.456;2024-01-25T04:43:00;35.1;;;7.1;;
37365;SDS011;23239;51.504;7.456;2024-01-25T04:44:00;35.1;;;7.1;;
37365;SDS011;23239;51.504;7.456;2024-01-25T04:45:00;35.1;;;7.1;;
37365;SDS011;23239;51.504;7.456;2024-01-25T04:46:00;35.1;;;7.1;;
37365;SDS011;23239;51.504;7.456;2024-01-25T04:47:00;35.1;;;7.1;;
37365;SDS011;23239;51.504;7.456;2024-01-25T04:48:00;27.4;;;7.0;;
37365;SDS011;23239;51.504;7.456;2024-01-25T04:49:00;27.4;;;7.0;;
37365;SDS011;23239;51.504;7.456;2024-01-25T04:50:00;27.4;;;7.0;;
37365;SDS011;23239;51.504;7.456;2024-01-25T04:51:00;27.4;;;7.0;;
37365;SDS011;23239;51.504;7.456;2024-01-25T04:52:00;27.4;;;7.0;;
37365;SDS011;23239;51.504;7.456;2024-01-25T04:53:01;33.9;;;6.7;;
37365;SDS011;23239;51.504;7.456;2024-01-25T04:54:00;33.9;;;6.7;;
37365;SDS011;23239;51.504;7.456;2024-01-25T04:55:00;33.9;;;6.7;;
37365;SDS011;23239;51.504;7.456;2024-01-25T04:56:00;33.9;;;6.7;;
37365;SDS011;23239;51.504;7.456;2024-01-25T04:57:00;33.9;;;6.7;;
37365;SDS011;23239;51.504;7.456;2024-01-25T04:58:00;41.1;;;7.6;;
37365;SDS011;23239;51.504;7.456;2024-01-25T04:59:00;41.1;;;7.6;;
37365;SDS011;23239;51.504;7.456;2024-01-25T05:00:00;41.1;;;7.6;;
37365;SDS011;23239;51.504;7.456;2024-01-25T05:01:00;41.1;;;7.6;;
37365;SDS011;23239;51.504;7.456;2024-01-25T05:02:00;41.1;;;7.6;;
37365;SDS011;23239;51.504;7.456;2024-01-25T05:03:00;36.3;;;7.0;;
37365;SDS011;23239;51.504;7.456;2024-01-25T05:04:00;36.3;;;7.0;;
37365;SDS011;23239;51.504;7.456;2024-01-25T05:05:00;36.3;;;7.0;;
37365;SDS011;23239;51.504;7.456;2024-01-25T05:06:00;36.3;;;7.0;;
37365;SDS011;23239;51.504;7.456;2024-01-25T05:07:00;36.3;;;7.0;;
37365;SDS011;23239;51.504;7.456;2024-01-25T05:08:00;40.4;;;7.8;;
37365;SDS011;23239;51.504;7.456;2024-01-25T05:09:00;40.4;;;7.8;;
37365;SDS011;23239;51.504;7.456;2024-01-25T05:10:00;40.4;;;7.8;;
37365;SDS011;23239;51.504;7.456;2024-01-25T05:11:00;40.4;;;7.8;;
37365;SDS011;23239;51.504;7.456;2024-01-25T05:12:00;40.4;;;7.8;;
37365;SDS011;23239;51.504;7.456;2024-01-25T05:13:00;33.8;;;7.1;;
37365;SDS011;23239;51.504;7.456;2024-01-25T05:14:00;33.8;;;7.1;;
37365;SDS011;23239;51.504;7.456;2024-01-25T05:15:00;33.8;;;7.1;;
37365;SDS011;23239;51.504;7.456;2024-01-25T05:16:00;33.8;;;7.1;;
37365;SDS011;23239;51.504;7.456;2024-01-25T05:17:00;33.8;;;7.1;;
37365;SDS011;23239;51.504;7.456;2024-01-25T05:18:00;32.1;;;6.5;;
37365;SDS011;23239;51.504;7.456;2024-01-25T05:19:00;32.1;;;6.5;;
37365;SDS011;23239;51.504;7.456;2024-01-25T05:20:00;32.1;;;6.5;;
37365;SDS011;23239;51.504;7.456;2024-01-25T05:21:00;32.1;;;6.5;;
37365;SDS011;23239;51.504;7.456;2024-01-25T05:22:00;32.1;;;6.5;;
37365;SDS011;23239;51.504;7.456;2024-01-25T05:23:00;33.0;;;7.1;;
37365;SDS011;23239;51.504;7.456;2024-01-25T05:24:00;33.0;;;7.1;;
37365;SDS011;23239;51.504;7.456;2024-01-25T05:25:00;33.0;;;7.1;;
37365;SDS011;23239;51.504;7.456;2024-01-25T05:26:01;33.0;;;7.1;;
37365;SDS011;23239;51.504;7.456;2024-01-25T05:27:00;33.0;;;7.1;;
37365;SDS011;23239;51.504;7.456;2024-01-25T05:28:00;32.2;;;6.8;;
37365;SDS011;23239;51.504;7.456;2024-01-25T05:29:00;32.2;;;6.8;;
37365;SDS011;23239;51.504;7.456;2024-01-25T05:30:00;32.2;;;6.8;;
37365;SDS011;23239;51.504;7.456;2024-01-25T05:31:00;32.2;;;6.8;;
37365;SDS011;23239;51.504;7.456;2024-01-25T05:32:00;32.2;;;6.8;;
37365;SDS011;23239;51.504;7.456;2024-01-25T05:33:00;33.1;;;7.0;;
37365;SDS011;23239;51.504;7.456;2024-01-25T05:34:00;33.1;;;7.0;;
37365;SDS011;23239;51.504;7.456;2024-01-25T05:35:00;33.1;;;7.0;;
37365;SDS011;23239;51.504;7.456;2024-01-25T05:36:00;33.1;;;7.0;;
37365;SDS011;23239;51.504;7.456;2024-01-25T05:37:00;33.1;;;7.0;;
37365;SDS011;23239;51.504;7.456;2024-01-25T05:38:00;37.4;;;8.1;;
37365;SDS011;23239;51.504;7.456;2024-01-25T05:39:00;37.4;;;8.1;;
37365;SDS011;23239;51.504;7.456;2024-01-25T05:40:00;37.4;;;8.1;;
37365;SDS011;23239;51.504;7.456;2024-01-25T05:41:00;37.4;;;8.1;;
37365;SDS011;23239;51.504;7.456;2024-01-25T05:42:00;37.4;;;8.1;;
37365;SDS011;23239;51.504;7.456;2024-01-25T05:43:00;40.0;;;7.6;;
37365;SDS011;23239;51.504;7.456;2024-01-25T05:44:00;40.0;;;7.6;;
37365;SDS011;23239;51.504;7.456;2024-01-25T05:45:00;40.0;;;7.6;;
37365;SDS011;23239;51.504;7.456;2024-01-25T05:46:00;40.0;;;7.6;;
37365;SDS011;23239;51.504;7.456;2024-01-25T05:47:00;40.0;;;7.6;;
37365;SDS011;23239;51.504;7.456;2024-01-25T05:48:00;38.6;;;7.4;;
37365;SDS011;23239;51.504;7.456;2024-01-25T05:49:00;38.6;;;7.4;;
37365;SDS011;23239;51.504;7.456;2024-01-25T05:50:00;38.6;;;7.4;;
37365;SDS011;23239;51.504;7.456;2024-01-25T05:51:00;38.6;;;7.4;;
37365;SDS011;23239;51.504;7.456;2024-01-25T05:52:00;38.6;;;7.4;;
37365;SDS011;23239;51.504;7.456;2024-01-25T05:53:00;32.3;;;7.2;;
37365;SDS011;23239;51.504;7.456;2024-01-25T05:54:00;32.3;;;7.2;;
37365;SDS011;23239;51.504;7.456;2024-01-25T05:55:00;32.3;;;7.2;;
37365;SDS011;23239;51.504;7.456;2024-01-25T05:56:00;32.3;;;7.2;;
37365;SDS011;23239;51.504;7.456;2024-01-25T05:57:00;32.3;;;7.2;;
37365;SDS011;23239;51.504;7.456;2024-01-25T05:58:00;33.7;;;7.4;;
37365;SDS011;23239;51.504;7.456;2024-01-25T05:59:00;33.7;;;7.4;;
37365;SDS011;23239;51.504;7.456;2024-01-25T06:00:00;33.7;;;7.4;;
37365;SDS011;23239;51.504;7.456;2024-01-25T06:01:00;33.7;;;7.4;;
37365;SDS011;23239;51.504;7.456;2024-01-25T06:02:00;33.7;;;7.4;;
37365;SDS011;23239;51.504;7.456;2024-01-25T06:03:00;39.0;;;8.0;;
37365;SDS011;23239;51.504;7.456;2024-01-25T06:04:00;39.0;;;8.0;;
37365;SDS011;23239;51.504;7.456;2024-01-25T06:05:00;39.0;;;8.0;;
37365;SDS011;23239;51.504;7.456;2024-01-25T06:06:00;39.0;;;8.0;;